Time;durP1;ratioP1;P1;durP2;ratioP2;P2;SDS_P1;SDS_P2;PMS_P1;PMS_P2;Temp;Humidity;BMP_temperature;BMP_pressure;BME280_temperature;BME280_humidity;BME280_pressure;Samples;Min_cycle;Max_cycle;Signal;HPM_P1;HPM_P2
2023/02/08 00:01:26;;;;;;;4.57;1.15;;;;;;;;;;5112544;28;20486;-62
2023/02/08 00:03:53;;;;;;;5.57;0.90;;;;;;;;;;5095885;28;20031;-62
2023/02/08 00:06:19;;;;;;;1.48;0.77;;;;;;;;;;5093151;28;20475;-62
2023/02/08 00:08:46;;;;;;;0.75;0.43;;;;;;;;;;5079194;28;20475;-63
2023/02/08 00:11:13;;;;;;;1.60;0.93;;;;;;;;;;5074469;28;20028;-62
2023/02/08 00:13:40;;;;;;;0.82;0.60;;;;;;;;;;5087788;28;20024;-62
2023/02/08 00:16:07;;;;;;;2.42;1.08;;;;;;;;;;5088715;28;20360;-63
2023/02/08 00:18:34;;;;;;;23.00;0.82;;;;;;;;;;5095675;28;20373;-62
2023/02/08 00:21:01;;;;;;;3.15;1.25;;;;;;;;;;5089969;28;20061;-62
2023/02/08 00:23:28;;;;;;;4.30;1.70;;;;;;;;;;5093355;28;20023;-62
2023/02/08 00:25:54;;;;;;;2.15;0.95;;;;;;;;;;5092576;28;20392;-62
2023/02/08 00:28:21;;;;;;;4.90;1.70;;;;;;;;;;5092024;28;20067;-64
2023/02/08 00:30:48;;;;;;;4.73;2.53;;;;;;;;;;5110368;28;20026;-63
2023/02/08 00:33:15;;;;;;;2.53;1.23;;;;;;;;;;5108948;28;20031;-62
2023/02/08 00:35:41;;;;;;;10.52;1.65;;;;;;;;;;5090448;28;20529;-62
2023/02/08 00:38:08;;;;;;;2.47;1.50;;;;;;;;;;5086797;28;20028;-62
2023/02/08 00:40:35;;;;;;;3.67;1.47;;;;;;;;;;5090153;28;20036;-62
2023/02/08 00:43:02;;;;;;;3.33;1.77;;;;;;;;;;5088389;28;20034;-62
2023/02/08 00:45:28;;;;;;;12.43;2.30;;;;;;;;;;5105653;28;20023;-62
2023/02/08 00:47:55;;;;;;;3.70;1.87;;;;;;;;;;5112041;28;20474;-63
2023/02/08 00:50:22;;;;;;;6.93;1.77;;;;;;;;;;5109377;28;20085;-62
2023/02/08 00:52:48;;;;;;;10.83;2.33;;;;;;;;;;5112224;28;20020;-62
2023/02/08 00:55:15;;;;;;;10.03;1.67;;;;;;;;;;5092633;28;20032;-62
2023/02/08 00:57:42;;;;;;;4.83;1.40;;;;;;;;;;5088786;28;20028;-62
2023/02/08 01:00:09;;;;;;;3.13;1.37;;;;;;;;;;5095543;28;20036;-62
2023/02/08 01:02:37;;;;;;;9.50;1.80;;;;;;;;;;5086979;28;20032;-62
2023/02/08 01:05:04;;;;;;;7.10;1.93;;;;;;;;;;5087531;28;20028;-62
2023/02/08 01:07:31;;;;;;;4.07;1.90;;;;;;;;;;5091387;28;20020;-62
2023/02/08 01:09:59;;;;;;;4.03;2.17;;;;;;;;;;5091688;28;20103;-62
2023/02/08 01:12:26;;;;;;;3.90;1.37;;;;;;;;;;5091835;28;20028;-62
2023/02/08 01:14:52;;;;;;;7.37;1.83;;;;;;;;;;5108079;28;20040;-62
2023/02/08 01:17:19;;;;;;;4.00;2.20;;;;;;;;;;5090866;28;20071;-62
2023/02/08 01:19:46;;;;;;;2.97;1.83;;;;;;;;;;5102869;28;20076;-62
2023/02/08 01:22:12;;;;;;;7.67;1.90;;;;;;;;;;5106735;28;20032;-62
2023/02/08 01:24:39;;;;;;;3.30;1.73;;;;;;;;;;5091006;28;20035;-62
2023/02/08 01:27:06;;;;;;;3.10;1.50;;;;;;;;;;5070560;28;20020;-62
2023/02/08 01:29:32;;;;;;;5.83;2.03;;;;;;;;;;5108394;28;20038;-62
2023/02/08 01:31:59;;;;;;;4.63;2.10;;;;;;;;;;5108374;28;20024;-63
2023/02/08 01:34:26;;;;;;;1.43;1.00;;;;;;;;;;5101230;28;20020;-62
2023/02/08 01:36:55;;;;;;;8.50;2.23;;;;;;;;;;5104861;28;20498;-62
2023/02/08 01:39:22;;;;;;;2.77;1.73;;;;;;;;;;5091667;28;20158;-62
2023/02/08 01:41:48;;;;;;;3.50;1.67;;;;;;;;;;5087751;28;20036;-62
2023/02/08 01:44:17;;;;;;;15.80;2.30;;;;;;;;;;5088372;28;20027;-61
2023/02/08 01:46:50;;;;;;;2.73;1.97;;;;;;;;;;5088259;28;20028;-61
2023/02/08 01:49:42;;;;;;;3.47;2.10;;;;;;;;;;5094154;28;20541;-62
2023/02/08 01:52:12;;;;;;;5.90;2.33;;;;;;;;;;5069052;28;20040;-62
2023/02/08 01:54:42;;;;;;;2.83;2.00;;;;;;;;;;5074451;28;20367;-62
2023/02/08 01:57:11;;;;;;;9.17;2.00;;;;;;;;;;5074451;28;20024;-62
2023/02/08 01:59:40;;;;;;;3.27;2.03;;;;;;;;;;5083436;28;20028;-62
2023/02/08 02:02:09;;;;;;;4.63;1.73;;;;;;;;;;5092747;28;20352;-62
2023/02/08 02:04:36;;;;;;;3.27;1.83;;;;;;;;;;5088850;28;20032;-62
2023/02/08 02:07:04;;;;;;;4.00;2.53;;;;;;;;;;5087406;28;20463;-62
2023/02/08 02:09:33;;;;;;;4.00;1.83;;;;;;;;;;5088764;28;20032;-61
2023/02/08 02:12:01;;;;;;;8.57;2.23;;;;;;;;;;5089794;28;20012;-62
2023/02/08 02:14:27;;;;;;;3.50;1.80;;;;;;;;;;5094504;28;20028;-61
2023/02/08 02:16:54;;;;;;;3.80;2.10;;;;;;;;;;5094270;28;20043;-61
2023/02/08 02:19:29;;;;;;;4.40;2.53;;;;;;;;;;5099728;28;20110;-61
2023/02/08 02:21:55;;;;;;;;;;;;;;;;;;5099392;28;20031;-61
2023/02/08 02:24:34;;;;;;;2.93;1.70;;;;;;;;;;5092564;28;20410;-61
2023/02/08 02:27:06;;;;;;;2.97;1.83;;;;;;;;;;5088694;28;20028;-61
2023/02/08 02:29:51;;;;;;;5.80;2.67;;;;;;;;;;5088475;28;20032;-62
2023/02/08 02:32:56;;;;;;;3.70;2.47;;;;;;;;;;5088388;28;20101;-61
2023/02/08 02:35:41;;;;;;;4.65;2.03;;;;;;;;;;4989970;28;20034;-61
2023/02/08 02:38:26;;;;;;;2.05;1.40;;;;;;;;;;4991630;28;20026;-61
2023/02/08 02:40:52;;;;;;;;;;;;;;;;;;5074765;28;20139;-62
2023/02/08 02:43:41;;;;;;;3.13;2.07;;;;;;;;;;5102220;28;19908;-61
2023/02/08 02:46:19;;;;;;;3.13;2.40;;;;;;;;;;5093592;28;20020;-61
2023/02/08 02:49:04;;;;;;;2.17;1.70;;;;;;;;;;5090619;28;20030;-61
2023/02/08 02:51:31;;;;;;;2.58;1.77;;;;;;;;;;5097426;28;20016;-63
2023/02/08 02:54:01;;;;;;;5.37;2.63;;;;;;;;;;5091202;28;20099;-61
2023/02/08 02:56:34;;;;;;;2.53;1.87;;;;;;;;;;5105100;28;20023;-61
2023/02/08 02:59:02;;;;;;;3.07;1.80;;;;;;;;;;5113632;28;20031;-61
2023/02/08 03:01:29;;;;;;;6.07;2.30;;;;;;;;;;5113864;28;20470;-61
2023/02/08 03:03:56;;;;;;;5.50;2.47;;;;;;;;;;5113633;28;20026;-61
2023/02/08 03:06:29;;;;;;;3.37;1.90;;;;;;;;;;5099623;28;20081;-61
2023/02/08 03:09:14;;;;;;;4.03;2.27;;;;;;;;;;5091957;28;20074;-61
2023/02/08 03:11:49;;;;;;;4.97;2.90;;;;;;;;;;5087510;28;20056;-61
2023/02/08 03:14:24;;;;;;;3.37;2.00;;;;;;;;;;5087440;28;20036;-61
2023/02/08 03:17:16;;;;;;;2.30;1.73;;;;;;;;;;5094375;28;20023;-62
2023/02/08 03:20:01;;;;;;;8.53;3.17;;;;;;;;;;5092961;28;20471;-61
2023/02/08 03:22:47;;;;;;;2.90;1.83;;;;;;;;;;5102838;28;20032;-61
2023/02/08 03:25:17;;;;;;;1.63;1.37;;;;;;;;;;5055929;28;20098;-62
2023/02/08 03:28:03;;;;;;;4.07;2.17;;;;;;;;;;5093539;28;20020;-63
2023/02/08 03:30:43;;;;;;;2.20;1.47;;;;;;;;;;5102543;28;21562;-61
2023/02/08 03:33:20;;;;;;;6.70;2.10;;;;;;;;;;5105614;28;20463;-61
2023/02/08 03:36:05;;;;;;;2.60;1.77;;;;;;;;;;5091651;28;20111;-61
2023/02/08 03:38:35;;;;;;;5.90;2.13;;;;;;;;;;5088195;28;20031;-61
2023/02/08 03:41:04;;;;;;;5.57;2.53;;;;;;;;;;5095068;28;20044;-61
2023/02/08 03:43:37;;;;;;;4.40;2.33;;;;;;;;;;5095699;28;20028;-62
2023/02/08 03:46:07;;;;;;;2.20;1.60;;;;;;;;;;5093471;28;20094;-61
2023/02/08 03:48:36;;;;;;;3.40;2.30;;;;;;;;;;5103483;28;20027;-61
2023/02/08 03:51:03;;;;;;;3.80;2.50;;;;;;;;;;5113335;28;20120;-62
2023/02/08 03:53:37;;;;;;;2.33;1.80;;;;;;;;;;5084743;28;20107;-61
2023/02/08 03:56:06;;;;;;;2.90;1.77;;;;;;;;;;5087666;28;20020;-61
2023/02/08 03:58:38;;;;;;;1.97;1.67;;;;;;;;;;5078310;28;20034;-62
2023/02/08 04:01:08;;;;;;;3.03;1.80;;;;;;;;;;5106704;28;20045;-61
2023/02/08 04:03:36;;;;;;;4.27;2.50;;;;;;;;;;5099788;28;20062;-61
2023/02/08 04:06:03;;;;;;;3.67;2.00;;;;;;;;;;5093325;28;20412;-61
2023/02/08 04:08:29;;;;;;;12.73;2.33;;;;;;;;;;5087430;28;20478;-61
2023/02/08 04:10:56;;;;;;;7.30;1.87;;;;;;;;;;5096895;28;20062;-61
2023/02/08 04:13:23;;;;;;;6.30;2.53;;;;;;;;;;5098323;28;20024;-61
2023/02/08 04:15:50;;;;;;;3.27;2.23;;;;;;;;;;5112355;28;20020;-61
2023/02/08 04:18:16;;;;;;;4.03;1.70;;;;;;;;;;5103866;28;20497;-61
2023/02/08 04:20:43;;;;;;;6.07;2.60;;;;;;;;;;5088299;28;20032;-61
2023/02/08 04:23:09;;;;;;;3.57;2.23;;;;;;;;;;5087263;28;20031;-62
2023/02/08 04:25:36;;;;;;;3.73;2.43;;;;;;;;;;5098497;28;20104;-61
2023/02/08 04:28:03;;;;;;;4.50;2.30;;;;;;;;;;5113205;28;20073;-61
2023/02/08 04:30:30;;;;;;;1.47;1.23;;;;;;;;;;5103303;28;20055;-61
2023/02/08 04:32:58;;;;;;;2.07;1.33;;;;;;;;;;5112420;28;20070;-61
2023/02/08 04:35:25;;;;;;;4.97;2.17;;;;;;;;;;5104721;28;20032;-61
2023/02/08 04:37:52;;;;;;;2.67;1.93;;;;;;;;;;5092617;28;20025;-61
2023/02/08 04:40:18;;;;;;;3.83;2.23;;;;;;;;;;5090480;28;20078;-61
2023/02/08 04:42:45;;;;;;;2.13;1.53;;;;;;;;;;5087442;28;20078;-61
2023/02/08 04:45:12;;;;;;;7.10;1.67;;;;;;;;;;5090841;28;20055;-61
2023/02/08 04:47:39;;;;;;;3.83;2.33;;;;;;;;;;5107785;28;20423;-61
2023/02/08 04:50:05;;;;;;;34.87;2.27;;;;;;;;;;5100756;28;20077;-61
2023/02/08 04:52:32;;;;;;;2.80;1.67;;;;;;;;;;5092476;28;20062;-61
2023/02/08 04:54:59;;;;;;;3.63;1.43;;;;;;;;;;5101354;28;20045;-61
2023/02/08 04:57:25;;;;;;;1.50;1.13;;;;;;;;;;5095961;28;20035;-61
2023/02/08 04:59:52;;;;;;;5.00;2.23;;;;;;;;;;5090981;28;20028;-61
2023/02/08 05:02:19;;;;;;;2.63;1.87;;;;;;;;;;5092260;28;20032;-61
2023/02/08 05:04:46;;;;;;;3.17;2.27;;;;;;;;;;5089578;28;20103;-62
2023/02/08 05:07:12;;;;;;;2.03;1.30;;;;;;;;;;5097825;28;20024;-61
2023/02/08 05:09:39;;;;;;;2.03;1.47;;;;;;;;;;5105942;28;20031;-62
2023/02/08 05:12:06;;;;;;;2.37;1.50;;;;;;;;;;5114201;28;20023;-61
2023/02/08 05:14:33;;;;;;;2.10;1.73;;;;;;;;;;5115279;28;20027;-61
2023/02/08 05:16:59;;;;;;;2.03;1.30;;;;;;;;;;5115276;28;20080;-61
2023/02/08 05:19:26;;;;;;;2.27;1.57;;;;;;;;;;5115606;28;20497;-61
2023/02/08 05:21:53;;;;;;;1.20;0.90;;;;;;;;;;5115655;28;20115;-61
2023/02/08 05:24:19;;;;;;;2.17;1.10;;;;;;;;;;5111578;28;20035;-62
2023/02/08 05:26:46;;;;;;;1.47;1.07;;;;;;;;;;5109672;28;20072;-62
2023/02/08 05:29:14;;;;;;;2.43;1.80;;;;;;;;;;5109946;28;20027;-61
2023/02/08 05:31:41;;;;;;;5.80;1.13;;;;;;;;;;5109577;28;20024;-62
2023/02/08 05:34:07;;;;;;;2.60;1.63;;;;;;;;;;5113034;28;20082;-61
2023/02/08 05:36:34;;;;;;;1.60;1.17;;;;;;;;;;5115131;28;20023;-61
2023/02/08 05:39:01;;;;;;;2.17;1.53;;;;;;;;;;5108429;28;20020;-61
2023/02/08 05:41:27;;;;;;;3.97;2.07;;;;;;;;;;5115411;28;20428;-61
2023/02/08 05:43:54;;;;;;;1.87;1.53;;;;;;;;;;5115291;28;20098;-61
2023/02/08 05:46:21;;;;;;;1.90;1.50;;;;;;;;;;5111360;28;20024;-62
2023/02/08 05:48:47;;;;;;;2.33;1.43;;;;;;;;;;5108957;28;20424;-61
2023/02/08 05:51:14;;;;;;;2.80;1.10;;;;;;;;;;5109517;28;20034;-61
2023/02/08 05:53:42;;;;;;;1.90;1.17;;;;;;;;;;5091563;28;20036;-61
2023/02/08 05:56:09;;;;;;;1.47;1.17;;;;;;;;;;5091888;28;20025;-61
2023/02/08 05:58:35;;;;;;;1.97;1.33;;;;;;;;;;5095633;28;20028;-61
2023/02/08 06:01:07;;;;;;;0.80;0.80;;;;;;;;;;5094485;28;20024;-61
2023/02/08 06:03:33;;;;;;;2.43;1.60;;;;;;;;;;5094573;28;20103;-61
2023/02/08 06:06:00;;;;;;;3.60;1.53;;;;;;;;;;5094246;28;20031;-61
2023/02/08 06:08:27;;;;;;;1.30;1.00;;;;;;;;;;5091313;28;20385;-61
2023/02/08 06:10:54;;;;;;;1.90;1.30;;;;;;;;;;5089020;28;20047;-61
2023/02/08 06:13:21;;;;;;;7.00;1.63;;;;;;;;;;5069496;28;20024;-61
2023/02/08 06:15:47;;;;;;;0.97;0.80;;;;;;;;;;5088997;28;20028;-61
2023/02/08 06:18:14;;;;;;;1.57;1.03;;;;;;;;;;5091063;28;20021;-61
2023/02/08 06:20:41;;;;;;;2.37;1.40;;;;;;;;;;5094311;28;20040;-61
2023/02/08 06:23:07;;;;;;;4.10;2.10;;;;;;;;;;5093684;28;20420;-61
2023/02/08 06:25:34;;;;;;;2.70;1.47;;;;;;;;;;5094117;28;20072;-61
2023/02/08 06:28:01;;;;;;;3.23;1.17;;;;;;;;;;5093906;28;20032;-60
2023/02/08 06:30:28;;;;;;;1.93;1.40;;;;;;;;;;5091568;28;20032;-61
2023/02/08 06:32:55;;;;;;;3.03;2.20;;;;;;;;;;5088390;28;20042;-61
2023/02/08 06:35:22;;;;;;;1.60;1.30;;;;;;;;;;5088326;28;20370;-61
2023/02/08 06:37:48;;;;;;;1.77;1.50;;;;;;;;;;5088313;28;20028;-61
2023/02/08 06:40:15;;;;;;;2.60;1.47;;;;;;;;;;5089437;28;20487;-61
2023/02/08 06:42:42;;;;;;;3.00;1.80;;;;;;;;;;5093814;28;20051;-61
2023/02/08 06:45:08;;;;;;;1.00;0.80;;;;;;;;;;5093759;28;20031;-61
2023/02/08 06:47:35;;;;;;;3.30;2.03;;;;;;;;;;5094142;28;20424;-61
2023/02/08 06:50:02;;;;;;;2.47;1.87;;;;;;;;;;5093723;28;20024;-61
2023/02/08 06:52:29;;;;;;;2.87;1.33;;;;;;;;;;5092024;28;20044;-61
2023/02/08 06:54:55;;;;;;;1.87;1.33;;;;;;;;;;5087933;28;20035;-61
2023/02/08 06:57:22;;;;;;;3.47;1.87;;;;;;;;;;5087765;28;20102;-61
2023/02/08 06:59:49;;;;;;;1.57;1.33;;;;;;;;;;5087724;28;20540;-61
2023/02/08 07:02:17;;;;;;;2.07;1.67;;;;;;;;;;5088405;28;20111;-60
2023/02/08 07:04:44;;;;;;;1.63;1.40;;;;;;;;;;5093421;28;20103;-61
2023/02/08 07:07:14;;;;;;;3.17;1.90;;;;;;;;;;5093302;28;20035;-61
2023/02/08 07:09:41;;;;;;;5.43;2.33;;;;;;;;;;5093215;28;20410;-61
2023/02/08 07:12:08;;;;;;;2.30;1.77;;;;;;;;;;5092979;28;20077;-60
2023/02/08 07:14:36;;;;;;;4.23;1.93;;;;;;;;;;5092078;28;20048;-61
2023/02/08 07:17:03;;;;;;;15.33;2.00;;;;;;;;;;5087643;28;20426;-61
2023/02/08 07:19:31;;;;;;;1.97;1.23;;;;;;;;;;5087533;28;20089;-61
2023/02/08 07:22:06;;;;;;;1.83;1.27;;;;;;;;;;5091061;28;20505;-60
2023/02/08 07:24:33;;;;;;;;;;;;;;;;;;5108624;28;20106;-61
2023/02/08 07:26:59;;;;;;;1.80;1.40;;;;;;;;;;5113045;28;19903;-61
2023/02/08 07:29:26;;;;;;;2.83;1.47;;;;;;;;;;5112950;28;20023;-61
2023/02/08 07:31:53;;;;;;;1.80;1.17;;;;;;;;;;5113379;28;20035;-60
2023/02/08 07:34:20;;;;;;;2.43;1.53;;;;;;;;;;5113243;28;20107;-61
2023/02/08 07:36:50;;;;;;;1.00;0.90;;;;;;;;;;5112132;28;20024;-62
2023/02/08 07:39:16;;;;;;;1.40;1.30;;;;;;;;;;5107273;28;20084;-61
2023/02/08 07:41:43;;;;;;;2.87;1.43;;;;;;;;;;5107126;28;20032;-61
2023/02/08 07:44:10;;;;;;;3.07;1.83;;;;;;;;;;5107612;28;20443;-60
2023/02/08 07:46:36;;;;;;;3.43;1.67;;;;;;;;;;5107561;28;20032;-61
2023/02/08 07:49:03;;;;;;;2.00;1.67;;;;;;;;;;5112832;28;20024;-61
2023/02/08 07:51:30;;;;;;;3.23;2.27;;;;;;;;;;5112761;28;20095;-60
2023/02/08 07:53:56;;;;;;;2.07;1.40;;;;;;;;;;5112951;28;20374;-60
2023/02/08 07:56:23;;;;;;;2.03;1.70;;;;;;;;;;5112891;28;20061;-61
2023/02/08 07:58:50;;;;;;;4.07;1.47;;;;;;;;;;5111702;28;20047;-61
2023/02/08 08:01:16;;;;;;;1.63;0.83;;;;;;;;;;5107137;28;20039;-61
2023/02/08 08:03:43;;;;;;;5.70;1.03;;;;;;;;;;5107159;28;20024;-61
2023/02/08 08:06:10;;;;;;;3.77;1.90;;;;;;;;;;5107209;28;20024;-61
2023/02/08 08:08:36;;;;;;;7.73;2.10;;;;;;;;;;5106576;28;20420;-61
2023/02/08 08:11:03;;;;;;;2.27;1.60;;;;;;;;;;5112514;28;20016;-61
2023/02/08 08:13:30;;;;;;;3.00;1.73;;;;;;;;;;5112801;28;20027;-61
2023/02/08 08:15:57;;;;;;;1.77;1.30;;;;;;;;;;5112416;28;20070;-61
2023/02/08 08:18:23;;;;;;;1.60;1.20;;;;;;;;;;5112656;28;20462;-61
2023/02/08 08:20:51;;;;;;;5.57;1.00;;;;;;;;;;5112234;28;20044;-60
2023/02/08 08:23:18;;;;;;;1.90;1.50;;;;;;;;;;5106986;28;20027;-61
2023/02/08 08:25:45;;;;;;;1.30;1.07;;;;;;;;;;5106944;28;20024;-61
2023/02/08 08:28:11;;;;;;;1.40;1.00;;;;;;;;;;5106980;28;20016;-61
2023/02/08 08:30:38;;;;;;;2.17;1.50;;;;;;;;;;5106397;28;20023;-61
2023/02/08 08:33:06;;;;;;;2.03;1.50;;;;;;;;;;5111203;28;20113;-61
2023/02/08 08:35:32;;;;;;;11.57;2.13;;;;;;;;;;5112351;28;20015;-61
2023/02/08 08:37:59;;;;;;;1.50;1.27;;;;;;;;;;5116666;28;20058;-61
2023/02/08 08:40:26;;;;;;;2.93;2.13;;;;;;;;;;5116204;28;20036;-61
2023/02/08 08:42:52;;;;;;;3.50;2.10;;;;;;;;;;5116388;28;20478;-60
2023/02/08 08:45:19;;;;;;;1.40;1.00;;;;;;;;;;5111519;28;20402;-61
2023/02/08 08:47:46;;;;;;;2.40;1.70;;;;;;;;;;5111021;28;20478;-61
2023/02/08 08:50:12;;;;;;;2.77;2.13;;;;;;;;;;5110068;28;20035;-60
2023/02/08 08:52:39;;;;;;;0.83;0.77;;;;;;;;;;5110617;28;20027;-62
2023/02/08 08:55:07;;;;;;;12.40;1.43;;;;;;;;;;5114774;28;20028;-61
2023/02/08 08:57:33;;;;;;;3.70;2.07;;;;;;;;;;5116305;28;20496;-61
2023/02/08 09:00:00;;;;;;;0.90;0.80;;;;;;;;;;5115692;28;20107;-60
2023/02/08 09:02:27;;;;;;;0.83;0.77;;;;;;;;;;5116257;28;20027;-61
2023/02/08 09:04:53;;;;;;;4.73;1.70;;;;;;;;;;5116271;28;20051;-61
2023/02/08 09:07:20;;;;;;;1.83;1.30;;;;;;;;;;5111548;28;20031;-61
2023/02/08 09:09:47;;;;;;;1.03;0.77;;;;;;;;;;5107345;28;20111;-61
2023/02/08 09:12:15;;;;;;;2.10;1.47;;;;;;;;;;5071888;28;20039;-61
2023/02/08 09:14:43;;;;;;;11.80;2.23;;;;;;;;;;5089823;28;20123;-60
2023/02/08 09:17:10;;;;;;;6.07;1.83;;;;;;;;;;5093259;28;20028;-60
2023/02/08 09:19:37;;;;;;;2.27;1.73;;;;;;;;;;5095449;28;20446;-61
2023/02/08 09:22:06;;;;;;;1.40;1.17;;;;;;;;;;5095206;28;20051;-61
2023/02/08 09:24:33;;;;;;;1.60;1.20;;;;;;;;;;5095404;28;20055;-60
2023/02/08 09:27:00;;;;;;;1.53;1.07;;;;;;;;;;5095473;28;20028;-60
2023/02/08 09:29:28;;;;;;;1.57;1.07;;;;;;;;;;5091622;28;20024;-61
2023/02/08 09:31:55;;;;;;;4.10;2.30;;;;;;;;;;5089715;28;20051;-61
2023/02/08 09:34:22;;;;;;;1.60;1.20;;;;;;;;;;5089549;28;20034;-61
2023/02/08 09:36:49;;;;;;;1.67;1.37;;;;;;;;;;5089652;28;20020;-60
2023/02/08 09:39:17;;;;;;;3.97;1.80;;;;;;;;;;5092335;28;20020;-61
2023/02/08 09:41:53;;;;;;;1.47;1.17;;;;;;;;;;5112214;28;20280;-62
2023/02/08 09:44:36;;;;;;;1.30;1.10;;;;;;;;;;5115374;28;20074;-61
2023/02/08 09:47:06;;;;;;;17.03;1.60;;;;;;;;;;5115266;28;20309;-60
2023/02/08 09:49:35;;;;;;;1.30;1.10;;;;;;;;;;5114678;28;20252;-60
2023/02/08 09:52:06;;;;;;;1.53;1.30;;;;;;;;;;5110043;28;20338;-60
2023/02/08 09:54:33;;;;;;;2.87;1.50;;;;;;;;;;5109791;28;20285;-61
2023/02/08 09:57:01;;;;;;;3.53;1.20;;;;;;;;;;5109708;28;20426;-60
2023/02/08 09:59:29;;;;;;;2.60;0.97;;;;;;;;;;5109416;28;20252;-61
2023/02/08 10:02:11;;;;;;;2.60;1.40;;;;;;;;;;5113115;28;20517;-60
2023/02/08 10:04:55;;;;;;;1.80;1.40;;;;;;;;;;5114964;28;20256;-60
2023/02/08 10:07:21;;;;;;;1.43;1.00;;;;;;;;;;5112859;28;20264;-61
2023/02/08 10:09:48;;;;;;;1.97;1.53;;;;;;;;;;5114528;28;20253;-60
2023/02/08 10:12:15;;;;;;;1.43;0.93;;;;;;;;;;5114790;28;20290;-60
2023/02/08 10:14:41;;;;;;;0.80;0.70;;;;;;;;;;5109338;28;20284;-60
2023/02/08 10:17:20;;;;;;;4.00;1.97;;;;;;;;;;5108953;28;20259;-61
2023/02/08 10:19:58;;;;;;;2.23;1.67;;;;;;;;;;5108723;28;20782;-61
2023/02/08 10:22:31;;;;;;;6.07;1.50;;;;;;;;;;5108795;28;20276;-61
2023/02/08 10:24:57;;;;;;;3.13;2.33;;;;;;;;;;5114563;28;20248;-61
2023/02/08 10:27:31;;;;;;;1.27;0.87;;;;;;;;;;5114636;28;20268;-61
2023/02/08 10:30:04;;;;;;;1.33;1.20;;;;;;;;;;5114130;28;20260;-60
2023/02/08 10:32:52;;;;;;;1.57;1.30;;;;;;;;;;5114436;28;20256;-60
2023/02/08 10:35:24;;;;;;;2.43;1.93;;;;;;;;;;5112857;28;20286;-60
2023/02/08 10:37:51;;;;;;;5.47;2.13;;;;;;;;;;5108754;28;20256;-60
2023/02/08 10:40:19;;;;;;;9.87;3.53;;;;;;;;;;5108362;28;20283;-60
2023/02/08 10:42:48;;;;;;;3.37;2.20;;;;;;;;;;5108527;28;20742;-60
2023/02/08 10:45:18;;;;;;;7.53;3.27;;;;;;;;;;5109669;28;20738;-61
2023/02/08 10:48:11;;;;;;;5.43;3.33;;;;;;;;;;5114189;28;20248;-60
2023/02/08 10:50:39;;;;;;;13.43;4.47;;;;;;;;;;5109482;28;20299;-61
2023/02/08 10:53:06;;;;;;;3.47;2.40;;;;;;;;;;5114360;28;20799;-60
2023/02/08 10:55:35;;;;;;;4.47;2.53;;;;;;;;;;5093293;28;20345;-60
2023/02/08 10:58:04;;;;;;;6.93;2.30;;;;;;;;;;5090764;28;20271;-60
2023/02/08 11:00:32;;;;;;;1.90;1.50;;;;;;;;;;5087171;28;20277;-61
2023/02/08 11:03:02;;;;;;;3.27;1.90;;;;;;;;;;5100412;28;20347;-60
2023/02/08 11:05:31;;;;;;;4.07;2.60;;;;;;;;;;5089938;28;20625;-60
2023/02/08 11:08:18;;;;;;;4.07;2.50;;;;;;;;;;5110389;28;20259;-60
2023/02/08 11:10:55;;;;;;;2.50;1.87;;;;;;;;;;5110311;28;20371;-60
2023/02/08 11:13:22;;;;;;;2.03;1.73;;;;;;;;;;5093223;28;20252;-60
2023/02/08 11:15:53;;;;;;;3.27;2.40;;;;;;;;;;5093123;28;20249;-60
2023/02/08 11:18:25;;;;;;;4.50;3.13;;;;;;;;;;5092892;28;20261;-61
2023/02/08 11:20:55;;;;;;;2.70;1.63;;;;;;;;;;5089065;28;20296;-60
2023/02/08 11:23:34;;;;;;;2.40;1.90;;;;;;;;;;5087437;28;20296;-61
2023/02/08 11:26:16;;;;;;;6.40;2.77;;;;;;;;;;5087395;28;20814;-60
2023/02/08 11:28:43;;;;;;;3.47;2.37;;;;;;;;;;5087356;28;20773;-60
2023/02/08 11:31:20;;;;;;;6.63;2.23;;;;;;;;;;5101357;28;20264;-61
2023/02/08 11:34:05;;;;;;;3.70;2.80;;;;;;;;;;5113246;28;20252;-60
2023/02/08 11:36:31;;;;;;;;;;;;;;;;;;5113321;28;20256;-60
2023/02/08 11:39:01;;;;;;;2.90;2.17;;;;;;;;;;5113231;28;19986;-60
2023/02/08 11:41:28;;;;;;;3.07;2.37;;;;;;;;;;5112545;28;20287;-60
2023/02/08 11:44:05;;;;;;;4.53;2.37;;;;;;;;;;5107257;28;20349;-61
2023/02/08 11:46:34;;;;;;;2.33;2.07;;;;;;;;;;5107443;28;20272;-60
2023/02/08 11:49:02;;;;;;;3.60;2.50;;;;;;;;;;5107222;28;20264;-60
2023/02/08 11:51:36;;;;;;;3.93;2.53;;;;;;;;;;5106930;28;20718;-60
2023/02/08 11:54:03;;;;;;;2.10;1.70;;;;;;;;;;5113025;28;20369;-61
2023/02/08 11:56:31;;;;;;;8.83;2.70;;;;;;;;;;5112917;28;20248;-60
2023/02/08 11:58:59;;;;;;;5.30;2.53;;;;;;;;;;5112951;28;20260;-60
2023/02/08 12:01:28;;;;;;;2.77;2.53;;;;;;;;;;5112467;28;20279;-60
2023/02/08 12:03:56;;;;;;;2.90;2.27;;;;;;;;;;5111739;28;20336;-60
2023/02/08 12:06:39;;;;;;;30.70;2.97;;;;;;;;;;5106865;28;20255;-60
2023/02/08 12:09:24;;;;;;;2.83;2.40;;;;;;;;;;5106952;28;20841;-60
2023/02/08 12:11:57;;;;;;;13.32;2.70;;;;;;;;;;5105426;28;20354;-60
2023/02/08 12:14:26;;;;;;;5.90;2.27;;;;;;;;;;5108638;28;20409;-60
2023/02/08 12:16:56;;;;;;;2.53;1.70;;;;;;;;;;5112779;28;20256;-60
2023/02/08 12:19:43;;;;;;;23.23;3.87;;;;;;;;;;5112809;28;20288;-60
2023/02/08 12:22:38;;;;;;;4.63;2.10;;;;;;;;;;5112372;28;20742;-61
2023/02/08 12:25:19;;;;;;;8.90;3.73;;;;;;;;;;5109479;28;20355;-61
2023/02/08 12:28:04;;;;;;;2.13;1.80;;;;;;;;;;5107464;28;20248;-60
2023/02/08 12:30:35;;;;;;;3.67;2.00;;;;;;;;;;5106646;28;20328;-60
2023/02/08 12:33:20;;;;;;;2.00;1.57;;;;;;;;;;5106896;28;20027;-60
2023/02/08 12:35:50;;;;;;;1.30;1.20;;;;;;;;;;5106590;28;20344;-60
2023/02/08 12:41:26;;;;;;;6.47;2.57;;;;;;;;;;5111939;28;20296;-60
2023/02/08 12:44:10;;;;;;;3.97;2.20;;;;;;;;;;5112272;28;20283;-60
2023/02/08 12:46:55;;;;;;;2.67;1.90;;;;;;;;;;5112443;28;20076;-60
2023/02/08 12:49:35;;;;;;;5.93;1.65;;;;;;;;;;5108765;28;20262;-61
2023/02/08 12:52:02;;;;;;;3.07;2.30;;;;;;;;;;5106375;28;20106;-60
2023/02/08 12:54:32;;;;;;;3.53;2.60;;;;;;;;;;5106663;28;20357;-60
2023/02/08 12:56:59;;;;;;;3.93;2.70;;;;;;;;;;5106662;28;20615;-61
2023/02/08 12:59:28;;;;;;;2.00;1.57;;;;;;;;;;5109348;28;20405;-60
2023/02/08 13:01:58;;;;;;;3.80;2.83;;;;;;;;;;5105602;28;20345;-60
2023/02/08 13:04:37;;;;;;;2.80;2.20;;;;;;;;;;5091836;28;20275;-61
2023/02/08 13:07:10;;;;;;;4.90;3.97;;;;;;;;;;5091764;28;20599;-60
2023/02/08 13:09:56;;;;;;;5.17;3.53;;;;;;;;;;5091721;28;20797;-60
2023/02/08 13:12:28;;;;;;;5.57;4.03;;;;;;;;;;5086726;28;20267;-60
2023/02/08 13:15:23;;;;;;;5.70;3.73;;;;;;;;;;5097372;28;20019;-61
2023/02/08 13:18:00;;;;;;;8.43;3.13;;;;;;;;;;5068775;28;20336;-60
2023/02/08 13:20:35;;;;;;;2.97;2.53;;;;;;;;;;5103309;28;20770;-60
2023/02/08 13:23:03;;;;;;;11.27;3.90;;;;;;;;;;5093552;28;20268;-61
2023/02/08 13:25:32;;;;;;;4.87;3.03;;;;;;;;;;5095477;28;20339;-60
2023/02/08 13:28:07;;;;;;;6.07;2.13;;;;;;;;;;5094900;28;20256;-60
2023/02/08 13:30:35;;;;;;;5.10;2.15;;;;;;;;;;5095258;28;20272;-60
2023/02/08 13:33:22;;;;;;;8.00;3.50;;;;;;;;;;5093908;28;20367;-60
2023/02/08 13:35:51;;;;;;;11.80;4.23;;;;;;;;;;5089427;28;20336;-61
2023/02/08 13:38:26;;;;;;;4.67;2.60;;;;;;;;;;5089368;28;20330;-61
2023/02/08 13:41:28;;;;;;;22.98;3.70;;;;;;;;;;5089363;28;20296;-60
2023/02/08 13:44:04;;;;;;;10.07;3.93;;;;;;;;;;4990032;28;20030;-61
2023/02/08 13:46:43;;;;;;;7.47;4.27;;;;;;;;;;5081264;28;20260;-60
2023/02/08 13:49:30;;;;;;;15.07;5.37;;;;;;;;;;5094862;28;20277;-61
2023/02/08 13:51:57;;;;;;;5.53;4.30;;;;;;;;;;5094297;28;20619;-61
2023/02/08 13:54:24;;;;;;;11.27;5.00;;;;;;;;;;5094835;28;20282;-60
2023/02/08 13:56:53;;;;;;;14.70;4.70;;;;;;;;;;5089792;28;20287;-60
2023/02/08 13:59:25;;;;;;;17.90;4.30;;;;;;;;;;5089244;28;20317;-61
2023/02/08 14:02:11;;;;;;;27.00;6.57;;;;;;;;;;5099015;28;20346;-60
2023/02/08 14:04:48;;;;;;;14.73;6.25;;;;;;;;;;5109313;28;20287;-60
2023/02/08 14:07:22;;;;;;;19.47;4.90;;;;;;;;;;5114789;28;20474;-60
2023/02/08 14:10:08;;;;;;;41.90;6.95;;;;;;;;;;5115027;28;20256;-60
2023/02/08 14:12:37;;;;;;;25.05;6.28;;;;;;;;;;5101261;28;20028;-61
2023/02/08 14:15:07;;;;;;;8.10;3.60;;;;;;;;;;5094109;28;20020;-61
2023/02/08 14:17:34;;;;;;;18.13;4.90;;;;;;;;;;5096298;28;20067;-60
2023/02/08 14:20:05;;;;;;;28.93;4.17;;;;;;;;;;5088777;28;20081;-61
2023/02/08 14:22:48;;;;;;;10.63;4.13;;;;;;;;;;5094726;28;20047;-61
2023/02/08 14:25:19;;;;;;;12.03;4.20;;;;;;;;;;5099751;28;20061;-61
2023/02/08 14:27:51;;;;;;;8.03;4.10;;;;;;;;;;5090217;28;20055;-61
2023/02/08 14:30:19;;;;;;;4.27;3.03;;;;;;;;;;5093833;28;20020;-61
2023/02/08 14:32:51;;;;;;;4.60;3.40;;;;;;;;;;5093795;28;20036;-61
2023/02/08 14:35:20;;;;;;;6.67;4.03;;;;;;;;;;5092923;28;20426;-61
2023/02/08 14:37:48;;;;;;;4.27;3.13;;;;;;;;;;5094971;28;20382;-61
2023/02/08 14:40:21;;;;;;;15.00;4.43;;;;;;;;;;5101382;28;20020;-61
2023/02/08 14:42:55;;;;;;;4.43;2.70;;;;;;;;;;5088439;28;20051;-61
2023/02/08 14:45:35;;;;;;;2.55;2.03;;;;;;;;;;5096406;28;20035;-61
2023/02/08 14:48:20;;;;;;;2.83;2.37;;;;;;;;;;5090524;28;20024;-61
2023/02/08 14:51:05;;;;;;;4.57;1.85;;;;;;;;;;5091740;28;20042;-62
2023/02/08 14:53:50;;;;;;;3.00;1.60;;;;;;;;;;5079694;28;20169;-61
2023/02/08 14:56:16;;;;;;;5.35;3.17;;;;;;;;;;5095768;28;20032;-61
2023/02/08 14:58:49;;;;;;;6.73;3.57;;;;;;;;;;5105367;28;20022;-61
2023/02/08 15:01:20;;;;;;;28.53;3.93;;;;;;;;;;5095925;28;20024;-61
2023/02/08 15:03:48;;;;;;;10.07;4.17;;;;;;;;;;5089842;28;20024;-61
2023/02/08 15:06:33;;;;;;;6.57;3.67;;;;;;;;;;5094331;28;20032;-61